createdAt,value
2022-12-23T00:00:12.994Z,45.06
2022-12-23T00:01:13.325Z,44.85
2022-12-23T00:02:13.738Z,45.06
2022-12-23T00:03:13.718Z,45.06
2022-12-23T00:04:16.138Z,45.06
2022-12-23T00:05:14.477Z,44.37
2022-12-23T00:06:15.726Z,45.01
2022-12-23T00:07:15.030Z,46.03
2022-12-23T00:08:16.328Z,45.06
2022-12-23T00:09:15.598Z,45.06
2022-12-23T00:10:15.891Z,45.06
2022-12-23T00:11:16.297Z,45.06
2022-12-23T00:12:16.650Z,45.06
2022-12-23T00:13:16.976Z,45.06
2022-12-23T00:14:21.660Z,45.06
2022-12-23T00:15:17.400Z,45.06
2022-12-23T00:16:18.765Z,45.06
2022-12-23T00:17:22.453Z,44.10
2022-12-23T00:18:20.280Z,45.06
2022-12-23T00:19:18.556Z,45.06
2022-12-23T00:20:18.845Z,45.01
2022-12-23T00:21:21.120Z,45.06
2022-12-23T00:22:19.408Z,42.97
2022-12-23T00:23:21.772Z,44.53
2022-12-23T00:24:20.035Z,45.06
2022-12-23T00:25:20.288Z,44.63
2022-12-23T00:26:21.605Z,45.06
2022-12-23T00:27:21.873Z,45.06
2022-12-23T00:28:22.142Z,45.06
2022-12-23T00:29:21.392Z,45.06
2022-12-23T00:30:21.663Z,43.45
2022-12-23T00:31:23.184Z,44.10
2022-12-23T00:32:25.071Z,45.06
2022-12-23T00:33:22.330Z,45.06
2022-12-23T00:34:22.618Z,45.06
2022-12-23T00:35:25.027Z,46.03
2022-12-23T00:36:23.456Z,45.06
2022-12-23T00:37:25.759Z,45.06
2022-12-23T00:38:25.513Z,45.06
2022-12-23T00:39:24.300Z,45.06
2022-12-23T00:40:24.649Z,44.53
2022-12-23T00:41:24.997Z,45.06
2022-12-23T00:42:27.205Z,45.06
2022-12-23T00:43:27.016Z,45.06
2022-12-23T00:44:25.841Z,46.03
2022-12-23T00:45:27.246Z,45.06
2022-12-23T00:46:26.693Z,45.06
2022-12-23T00:47:28.022Z,45.06
2022-12-23T00:48:27.350Z,46.03
2022-12-23T00:49:27.724Z,45.92
2022-12-23T00:50:28.041Z,45.06
2022-12-23T00:51:28.345Z,43.83
2022-12-23T00:52:28.637Z,45.06
2022-12-23T00:53:28.938Z,45.06
2022-12-23T00:54:30.260Z,43.77
2022-12-23T00:55:29.539Z,45.06
2022-12-23T00:56:29.877Z,45.06
2022-12-23T00:57:30.172Z,43.88
2022-12-23T00:58:30.523Z,44.53
2022-12-23T00:59:30.824Z,45.06
2022-12-23T01:00:32.082Z,44.10
2022-12-23T01:01:31.651Z,43.61
2022-12-23T01:02:33.107Z,44.31
2022-12-23T01:03:31.636Z,44.10
2022-12-23T01:04:32.077Z,45.06
2022-12-23T01:05:32.427Z,45.06
2022-12-23T01:06:34.765Z,44.10
2022-12-23T01:07:35.066Z,45.06
2022-12-23T01:08:35.394Z,45.06
2022-12-23T01:09:35.779Z,42.54
2022-12-23T01:10:35.086Z,43.77
2022-12-23T01:11:34.505Z,42.54
2022-12-23T01:12:34.769Z,45.06
2022-12-23T01:13:35.136Z,45.06
2022-12-23T01:14:35.445Z,43.61
2022-12-23T01:15:35.767Z,45.06
2022-12-23T01:16:38.132Z,43.51
2022-12-23T01:17:36.527Z,45.06
2022-12-23T01:18:37.764Z,45.06
2022-12-23T01:19:37.078Z,45.06
2022-12-23T01:21:27.310Z,42.54
2022-12-23T01:22:27.225Z,42.59
2022-12-23T01:23:26.592Z,42.54
2022-12-23T01:24:26.923Z,45.06
2022-12-23T01:25:27.256Z,42.54
2022-12-23T01:26:27.612Z,45.06
2022-12-23T01:27:30.895Z,42.54
2022-12-23T01:28:28.213Z,45.06
2022-12-23T01:29:28.488Z,45.06
2022-12-23T01:30:30.759Z,45.06
2022-12-23T01:31:31.052Z,42.54
2022-12-23T01:32:29.347Z,42.54
2022-12-23T01:33:30.557Z,44.10
2022-12-23T01:34:36.178Z,45.06
2022-12-23T01:35:29.834Z,42.54
2022-12-23T01:36:30.174Z,42.86
2022-12-23T01:37:31.271Z,44.47
2022-12-23T01:38:31.505Z,43.18
2022-12-23T01:39:30.789Z,44.74
2022-12-23T01:40:31.100Z,44.15
2022-12-23T01:41:31.411Z,42.54
2022-12-23T01:42:31.707Z,43.83
2022-12-23T01:43:33.008Z,45.01
2022-12-23T01:44:32.300Z,45.06
2022-12-23T01:45:34.593Z,45.06
2022-12-23T01:46:34.038Z,42.65
2022-12-23T01:47:34.279Z,45.06
2022-12-23T01:48:33.595Z,42.54
2022-12-23T01:49:33.842Z,42.54
2022-12-23T01:50:34.143Z,44.20
2022-12-23T01:51:34.443Z,45.06
2022-12-23T01:52:34.712Z,45.06
2022-12-23T01:53:36.953Z,45.06
2022-12-23T01:54:37.678Z,45.06
2022-12-23T01:55:36.400Z,45.06
2022-12-23T01:56:36.675Z,45.06
2022-12-23T01:57:37.913Z,45.06
2022-12-23T01:58:36.173Z,44.37
2022-12-23T01:59:36.460Z,45.06
2022-12-23T02:00:37.721Z,42.75
2022-12-23T02:01:39.220Z,45.06
2022-12-23T02:02:37.187Z,42.54
2022-12-23T02:03:38.138Z,45.06
2022-12-23T02:04:37.469Z,45.06
2022-12-23T02:05:39.158Z,42.54
2022-12-23T02:06:37.947Z,44.31
2022-12-23T02:07:39.727Z,43.99
2022-12-23T02:08:38.507Z,43.88
2022-12-23T02:09:39.607Z,44.37
2022-12-23T02:10:38.896Z,44.10
2022-12-23T02:11:41.112Z,42.92
2022-12-23T02:12:41.414Z,44.10
2022-12-23T02:13:39.857Z,44.10
2022-12-23T02:14:40.229Z,43.88
2022-12-23T02:15:40.604Z,44.90
2022-12-23T02:16:42.883Z,44.20
2022-12-23T02:17:43.165Z,44.10
2022-12-23T02:18:41.439Z,44.74
2022-12-23T02:19:43.686Z,43.51
2022-12-23T02:20:41.998Z,44.15
2022-12-23T02:21:44.336Z,43.94
2022-12-23T02:22:42.812Z,43.77
2022-12-23T02:23:43.202Z,44.10
2022-12-23T02:24:44.462Z,44.20
2022-12-23T02:25:45.720Z,44.15
2022-12-23T02:26:46.017Z,44.96
2022-12-23T02:27:46.315Z,43.34
2022-12-23T02:28:46.627Z,42.65
2022-12-23T02:29:45.915Z,44.42
2022-12-23T02:30:45.328Z,43.18
2022-12-23T02:31:45.644Z,44.31
2022-12-23T02:32:46.066Z,44.10
2022-12-23T02:33:48.522Z,43.18
2022-12-23T02:34:47.860Z,43.61
2022-12-23T02:35:48.236Z,44.31
2022-12-23T02:36:48.553Z,43.18
2022-12-23T02:37:49.916Z,44.15
2022-12-23T02:38:48.280Z,43.18
2022-12-23T02:39:50.579Z,45.06
2022-12-23T02:40:50.887Z,43.45
2022-12-23T02:41:50.646Z,42.81
2022-12-23T02:42:49.593Z,42.54
2022-12-23T02:43:51.553Z,45.06
2022-12-23T02:44:50.473Z,45.06
2022-12-23T02:45:51.126Z,44.42
2022-12-23T02:46:50.945Z,45.06
2022-12-23T02:47:51.395Z,44.58
2022-12-23T02:48:52.866Z,43.51
2022-12-23T02:49:53.234Z,42.54
2022-12-23T02:50:54.784Z,42.54
2022-12-23T02:51:53.826Z,42.54
2022-12-23T02:52:53.679Z,45.06
2022-12-23T02:53:53.857Z,42.54
2022-12-23T02:54:53.362Z,43.94
2022-12-23T02:55:55.631Z,42.54
2022-12-23T02:56:56.254Z,45.06
2022-12-23T02:57:54.140Z,44.69
2022-12-23T02:58:55.608Z,45.06
2022-12-23T02:59:54.697Z,42.54
2022-12-23T03:00:56.155Z,43.83
2022-12-23T03:01:58.150Z,43.08
2022-12-23T03:02:56.726Z,43.45
2022-12-23T03:03:57.779Z,43.88
2022-12-23T03:04:56.237Z,43.34
2022-12-23T03:05:57.341Z,44.96
2022-12-23T03:06:56.311Z,42.54
2022-12-23T03:07:57.708Z,43.40
2022-12-23T03:08:57.042Z,42.54
2022-12-23T03:09:57.678Z,42.54
2022-12-23T03:10:57.628Z,43.45
2022-12-23T03:11:59.983Z,43.18
2022-12-23T03:12:58.336Z,42.54
2022-12-23T03:13:58.630Z,42.54
2022-12-23T03:14:59.267Z,45.06
2022-12-23T03:15:59.443Z,44.69
2022-12-23T03:17:00.734Z,43.18
2022-12-23T03:18:01.020Z,42.54
2022-12-23T03:19:00.168Z,44.79
2022-12-23T03:20:00.229Z,44.10
2022-12-23T03:21:00.197Z,44.04
2022-12-23T03:22:00.751Z,42.86
2022-12-23T03:23:01.065Z,42.54
2022-12-23T03:24:01.382Z,43.34
2022-12-23T03:25:02.600Z,42.54
2022-12-23T03:26:04.069Z,44.42
2022-12-23T03:27:03.277Z,44.42
2022-12-23T03:28:04.086Z,43.13
2022-12-23T03:29:03.772Z,43.77
2022-12-23T03:30:03.987Z,43.45
2022-12-23T03:31:04.138Z,42.59
2022-12-23T03:32:04.277Z,42.54
2022-12-23T03:33:04.396Z,43.51
2022-12-23T03:34:05.604Z,42.54
2022-12-23T03:35:04.976Z,42.54
2022-12-23T03:36:05.326Z,42.54
2022-12-23T03:37:05.668Z,43.67
2022-12-23T03:38:05.050Z,43.67
2022-12-23T03:39:06.331Z,42.54
2022-12-23T03:40:06.603Z,44.42
2022-12-23T03:41:06.915Z,42.81
2022-12-23T03:42:07.153Z,42.54
2022-12-23T03:43:07.403Z,42.59
2022-12-23T03:44:07.687Z,42.54
2022-12-23T03:45:37.599Z,42.54
2022-12-23T03:46:08.345Z,42.59
2022-12-23T03:47:08.644Z,42.22
2022-12-23T03:48:08.871Z,42.54
2022-12-23T03:49:09.132Z,43.45
2022-12-23T03:50:09.374Z,42.54
2022-12-23T03:51:09.609Z,42.54
2022-12-23T03:52:09.872Z,42.54
2022-12-23T03:53:10.681Z,42.54
2022-12-23T03:54:10.300Z,42.59
2022-12-23T03:55:10.459Z,42.54
2022-12-23T03:56:11.189Z,42.54
2022-12-23T03:57:10.977Z,43.24
2022-12-23T03:58:11.166Z,42.54
2022-12-23T03:59:11.399Z,42.54
2022-12-23T04:00:11.775Z,42.54
2022-12-23T04:01:12.128Z,42.54
2022-12-23T04:02:12.558Z,42.54
2022-12-23T04:03:11.844Z,42.54
2022-12-23T04:04:12.218Z,42.54
2022-12-23T04:05:14.562Z,42.92
2022-12-23T04:06:12.958Z,42.54
2022-12-23T04:07:13.234Z,42.54
2022-12-23T04:08:14.526Z,42.54
2022-12-23T04:09:19.828Z,43.94
2022-12-23T04:10:14.034Z,42.54
2022-12-23T04:11:14.299Z,42.54
2022-12-23T04:12:14.606Z,42.97
2022-12-23T04:13:14.958Z,42.54
2022-12-23T04:14:15.327Z,42.54
2022-12-23T04:15:17.521Z,43.83
2022-12-23T04:16:17.426Z,45.06
2022-12-23T04:17:16.322Z,42.54
2022-12-23T04:18:18.577Z,42.54
2022-12-23T04:19:17.788Z,44.04
2022-12-23T04:20:17.034Z,42.54
2022-12-23T04:21:17.318Z,43.83
2022-12-23T04:22:17.632Z,42.54
2022-12-23T04:23:17.873Z,42.54
2022-12-23T04:24:18.179Z,44.63
2022-12-23T04:25:19.984Z,45.06
2022-12-23T04:26:18.911Z,44.26
2022-12-23T04:27:19.236Z,42.65
2022-12-23T04:28:20.549Z,43.88
2022-12-23T04:29:21.784Z,43.24
2022-12-23T04:30:20.097Z,43.13
2022-12-23T04:31:20.546Z,45.06
2022-12-23T04:32:20.929Z,43.56
2022-12-23T04:33:21.223Z,45.06
2022-12-23T04:34:21.495Z,44.63
2022-12-23T04:35:23.734Z,45.06
2022-12-23T04:36:22.036Z,42.54
2022-12-23T04:37:24.381Z,43.67
2022-12-23T04:38:24.403Z,42.75
2022-12-23T04:39:23.336Z,44.37
2022-12-23T04:40:23.578Z,43.18
2022-12-23T04:41:23.909Z,44.79
2022-12-23T04:42:24.196Z,45.01
2022-12-23T04:43:24.653Z,45.06
2022-12-23T04:44:25.049Z,45.06
2022-12-23T04:45:26.323Z,44.85
2022-12-23T04:46:26.663Z,44.37
2022-12-23T04:47:28.076Z,44.10
2022-12-23T04:48:28.330Z,42.86
2022-12-23T04:49:27.582Z,42.54
2022-12-23T04:50:26.990Z,44.15
2022-12-23T04:51:27.335Z,44.85
2022-12-23T04:52:28.633Z,44.58
2022-12-23T04:53:27.968Z,45.06
2022-12-23T04:54:28.389Z,45.06
2022-12-23T04:55:30.654Z,45.06
2022-12-23T04:56:29.990Z,45.06
2022-12-23T04:57:31.258Z,42.54
2022-12-23T04:58:31.412Z,44.10
2022-12-23T04:59:29.678Z,44.42
2022-12-23T05:00:37.154Z,42.54
2022-12-23T05:01:30.383Z,45.06
2022-12-23T05:02:31.878Z,42.54
2022-12-23T05:03:31.785Z,44.10
2022-12-23T05:04:32.159Z,45.06
2022-12-23T05:05:33.645Z,45.06
2022-12-23T05:06:31.974Z,42.54
2022-12-23T05:07:35.780Z,42.59
2022-12-23T05:08:34.511Z,42.54
2022-12-23T05:09:34.888Z,44.15
2022-12-23T05:10:33.274Z,45.06
2022-12-23T05:11:41.746Z,42.54
2022-12-23T05:12:33.957Z,42.70
2022-12-23T05:13:34.307Z,45.06
2022-12-23T05:14:34.581Z,44.53
2022-12-23T05:15:34.893Z,43.88
2022-12-23T05:16:36.047Z,45.06
2022-12-23T05:17:35.319Z,45.06
2022-12-23T05:18:37.556Z,42.54
2022-12-23T05:19:36.875Z,44.37
2022-12-23T05:20:37.575Z,45.06
2022-12-23T05:21:36.441Z,43.88
2022-12-23T05:22:39.223Z,43.45
2022-12-23T05:23:37.056Z,45.06
2022-12-23T05:24:39.284Z,42.54
2022-12-23T05:25:37.585Z,42.54
2022-12-23T05:26:37.856Z,45.06
2022-12-23T05:27:38.152Z,44.74
2022-12-23T05:28:39.436Z,42.54
2022-12-23T05:29:38.703Z,43.45
2022-12-23T05:30:39.034Z,44.79
2022-12-23T05:31:39.488Z,45.06
2022-12-23T05:32:41.789Z,42.54
2022-12-23T05:33:40.274Z,44.58
2022-12-23T05:34:42.135Z,44.53
2022-12-23T05:35:40.488Z,45.06
2022-12-23T05:36:40.901Z,43.94
2022-12-23T05:37:42.212Z,43.67
2022-12-23T05:38:43.580Z,43.24
2022-12-23T05:39:42.883Z,44.10
2022-12-23T05:40:42.374Z,44.74
2022-12-23T05:41:44.248Z,42.54
2022-12-23T05:42:43.710Z,43.18
2022-12-23T05:43:43.155Z,44.79
2022-12-23T05:44:43.575Z,43.99
2022-12-23T05:45:44.013Z,43.40
2022-12-23T05:46:44.652Z,45.01
2022-12-23T05:47:44.459Z,45.06
2022-12-23T05:48:45.772Z,44.15
2022-12-23T05:49:47.059Z,42.54
2022-12-23T05:50:45.595Z,44.42
2022-12-23T05:51:45.455Z,43.45
2022-12-23T05:52:45.774Z,43.45
2022-12-23T05:53:46.139Z,42.81
2022-12-23T05:54:46.581Z,42.65
2022-12-23T05:55:47.980Z,44.26
2022-12-23T05:56:47.286Z,42.54
2022-12-23T05:57:49.452Z,45.06
2022-12-23T05:58:47.938Z,44.37
2022-12-23T05:59:49.857Z,42.54
2022-12-23T06:00:48.299Z,43.88
2022-12-23T06:01:48.942Z,45.06
2022-12-23T06:02:53.993Z,45.06
2022-12-23T06:03:51.436Z,42.54
2022-12-23T06:04:49.430Z,43.18
2022-12-23T06:05:49.820Z,45.06
2022-12-23T06:06:51.655Z,42.54
2022-12-23T06:07:52.562Z,43.02
2022-12-23T06:08:57.496Z,44.20
2022-12-23T06:09:52.263Z,44.42
2022-12-23T06:10:52.293Z,42.54
2022-12-23T06:11:51.602Z,43.24
2022-12-23T06:12:52.008Z,42.54
2022-12-23T06:13:53.076Z,42.54
2022-12-23T06:14:52.381Z,42.54
2022-12-23T06:15:52.765Z,42.54
2022-12-23T06:16:53.200Z,42.54
2022-12-23T06:17:55.054Z,45.06
2022-12-23T06:18:53.448Z,43.51
2022-12-23T06:19:55.751Z,42.54
2022-12-23T06:20:55.153Z,42.59
2022-12-23T06:21:56.580Z,45.06
2022-12-23T06:22:56.831Z,42.54
2022-12-23T06:23:56.728Z,42.54
2022-12-23T06:24:55.651Z,45.06
2022-12-23T06:25:56.198Z,43.51
2022-12-23T06:26:57.409Z,42.97
2022-12-23T06:27:56.696Z,45.06
2022-12-23T06:28:57.159Z,42.54
2022-12-23T06:29:57.994Z,44.74
2022-12-23T06:30:58.461Z,44.15
2022-12-23T06:31:58.736Z,42.54
2022-12-23T06:32:58.757Z,45.06
2022-12-23T06:33:58.623Z,44.20
2022-12-23T06:34:58.930Z,42.54
2022-12-23T06:35:59.263Z,43.56
2022-12-23T06:36:59.545Z,43.29
2022-12-23T06:37:59.760Z,44.15
2022-12-23T06:38:59.176Z,42.70
2022-12-23T06:40:01.448Z,42.54
2022-12-23T06:41:00.723Z,43.56
2022-12-23T06:42:00.846Z,43.83
2022-12-23T06:43:00.985Z,44.26
2022-12-23T06:44:01.324Z,43.67
2022-12-23T06:45:02.540Z,43.02
2022-12-23T06:46:01.903Z,44.26
2022-12-23T06:47:02.030Z,43.61
2022-12-23T06:48:02.315Z,44.53
2022-12-23T06:49:03.201Z,43.34
2022-12-23T06:50:02.659Z,44.69
2022-12-23T06:51:03.430Z,45.06
2022-12-23T06:52:02.953Z,43.40
2022-12-23T06:53:03.126Z,44.74
2022-12-23T06:54:03.378Z,45.06
2022-12-23T06:55:03.131Z,45.06
2022-12-23T06:56:04.449Z,45.06
2022-12-23T06:57:05.170Z,45.06
2022-12-23T06:58:04.661Z,45.06
2022-12-23T06:59:03.550Z,45.06
2022-12-23T07:00:03.969Z,45.06
2022-12-23T07:01:04.623Z,45.06
2022-12-23T07:02:05.502Z,45.06
2022-12-23T07:03:05.601Z,45.76
2022-12-23T07:04:05.960Z,45.06
2022-12-23T07:05:06.089Z,45.06
2022-12-23T07:06:06.829Z,46.03
2022-12-23T07:07:06.370Z,46.03
2022-12-23T07:08:06.659Z,45.06
2022-12-23T07:09:06.063Z,45.76
2022-12-23T07:10:08.304Z,45.06
2022-12-23T07:11:07.530Z,45.39
2022-12-23T07:12:06.859Z,46.03
2022-12-23T07:13:08.199Z,45.98
2022-12-23T07:14:08.290Z,45.06
2022-12-23T07:15:08.532Z,44.47
2022-12-23T07:16:10.026Z,45.92
2022-12-23T07:17:08.859Z,45.39
2022-12-23T07:18:09.483Z,45.06
2022-12-23T07:19:09.095Z,45.06
2022-12-23T07:20:09.305Z,45.06
2022-12-23T07:21:19.775Z,46.03
2022-12-23T07:22:09.088Z,46.03
2022-12-23T07:23:09.498Z,45.06
2022-12-23T07:24:09.744Z,45.06
2022-12-23T07:25:11.610Z,43.45
2022-12-23T07:26:11.280Z,45.06
2022-12-23T07:27:11.461Z,45.06
2022-12-23T07:28:11.839Z,45.06
2022-12-23T07:29:15.345Z,44.10
2022-12-23T07:30:11.909Z,45.06
2022-12-23T07:31:12.227Z,46.03
2022-12-23T07:32:12.627Z,45.06
2022-12-23T07:33:13.026Z,45.06
2022-12-23T07:34:12.410Z,45.06
2022-12-23T07:35:13.515Z,45.06
2022-12-23T07:36:13.599Z,45.06
2022-12-23T07:37:13.913Z,43.99
2022-12-23T07:38:14.236Z,44.63
2022-12-23T07:39:14.389Z,45.06
2022-12-23T07:40:14.472Z,45.06
2022-12-23T07:41:14.726Z,44.96
2022-12-23T07:42:46.021Z,44.26
2022-12-23T07:43:15.963Z,45.06
2022-12-23T07:44:16.746Z,43.72
2022-12-23T07:45:16.275Z,43.40
2022-12-23T07:46:16.227Z,43.61
2022-12-23T07:47:16.702Z,45.06
2022-12-23T07:48:16.863Z,44.15
2022-12-23T07:49:16.225Z,45.06
2022-12-23T07:50:16.648Z,45.06
2022-12-23T07:51:18.979Z,45.01
2022-12-23T07:52:19.315Z,44.10
2022-12-23T07:53:18.713Z,44.53
2022-12-23T07:54:19.495Z,45.06
2022-12-23T07:55:18.317Z,43.34
2022-12-23T07:56:20.315Z,45.06
2022-12-23T07:57:20.113Z,45.06
2022-12-23T07:58:20.517Z,43.51
2022-12-23T07:59:19.809Z,42.54
2022-12-23T08:00:21.196Z,43.88
2022-12-23T08:01:21.760Z,44.15
2022-12-23T08:02:22.712Z,43.24
2022-12-23T08:03:20.829Z,42.54
2022-12-23T08:04:20.878Z,42.54
2022-12-23T08:05:23.195Z,44.47
2022-12-23T08:06:21.828Z,42.86
2022-12-23T08:07:23.686Z,42.54
2022-12-23T08:08:24.171Z,45.06
2022-12-23T08:09:22.087Z,45.06
2022-12-23T08:10:23.357Z,45.06
2022-12-23T08:11:23.678Z,42.54
2022-12-23T08:12:23.995Z,42.92
2022-12-23T08:13:24.278Z,43.40
2022-12-23T08:14:25.613Z,44.04
2022-12-23T08:15:24.747Z,43.77
2022-12-23T08:16:25.145Z,43.45
2022-12-23T08:17:25.506Z,45.06
2022-12-23T08:18:25.873Z,42.92
2022-12-23T08:19:26.429Z,45.06
2022-12-23T08:20:25.307Z,45.06
2022-12-23T08:21:26.770Z,43.88
2022-12-23T08:22:26.104Z,43.99
2022-12-23T08:23:26.709Z,43.29
2022-12-23T08:24:26.874Z,44.42
2022-12-23T08:25:26.799Z,42.70
2022-12-23T08:26:29.254Z,45.06
2022-12-23T08:27:29.569Z,45.06
2022-12-23T08:28:28.705Z,45.06
2022-12-23T08:29:32.548Z,43.18
2022-12-23T08:30:29.255Z,44.10
2022-12-23T08:31:28.773Z,45.06
2022-12-23T08:32:29.701Z,44.42
2022-12-23T08:33:30.042Z,45.06
2022-12-23T08:34:30.103Z,44.74
2022-12-23T08:35:30.199Z,42.54
2022-12-23T08:36:30.575Z,42.54
2022-12-23T08:37:30.749Z,44.10
2022-12-23T08:38:31.165Z,42.54
2022-12-23T08:39:31.332Z,42.54
2022-12-23T08:40:30.659Z,43.99
2022-12-23T08:41:31.713Z,43.34
2022-12-23T08:42:31.830Z,45.06
2022-12-23T08:43:35.702Z,42.54
2022-12-23T08:55:34.535Z,45.06
2022-12-23T08:56:34.959Z,42.54
2022-12-23T08:57:35.074Z,42.54
2022-12-23T08:58:36.431Z,43.13
2022-12-23T08:59:35.681Z,42.54
2022-12-23T09:00:36.045Z,43.29
2022-12-23T09:01:37.442Z,42.54
2022-12-23T09:02:35.611Z,43.61
2022-12-23T09:03:36.843Z,42.54
2022-12-23T09:04:36.688Z,42.54
2022-12-23T09:05:37.067Z,44.47
2022-12-23T09:06:38.428Z,43.40
2022-12-23T09:07:37.863Z,42.54
2022-12-23T09:08:37.346Z,44.42
2022-12-23T09:09:37.757Z,42.54
2022-12-23T09:10:38.964Z,44.10
2022-12-23T09:11:39.085Z,42.54
2022-12-23T09:12:39.225Z,42.54
2022-12-23T09:13:39.504Z,43.02
2022-12-23T09:14:39.551Z,42.70
2022-12-23T09:15:40.933Z,42.54
2022-12-23T09:16:41.402Z,42.54
2022-12-23T09:17:39.938Z,42.54
2022-12-23T09:18:40.757Z,42.54
2022-12-23T09:19:44.855Z,42.97
2022-12-23T09:20:40.572Z,44.42
2022-12-23T09:21:41.183Z,42.54
2022-12-23T09:22:43.195Z,42.54
2022-12-23T09:23:42.285Z,42.54
2022-12-23T09:24:42.440Z,43.34
2022-12-23T09:25:42.820Z,42.54
2022-12-23T09:26:42.383Z,42.54
2022-12-23T09:27:43.172Z,43.34
2022-12-23T09:28:43.337Z,44.63
2022-12-23T09:29:43.607Z,42.65
2022-12-23T09:30:43.989Z,42.54
2022-12-23T09:31:43.580Z,43.51
2022-12-23T09:32:44.222Z,42.54
2022-12-23T09:33:44.848Z,42.54
2022-12-23T09:34:45.763Z,42.86
2022-12-23T09:35:45.247Z,42.54
2022-12-23T09:36:46.279Z,42.54
2022-12-23T09:37:46.218Z,43.45
2022-12-23T09:38:46.332Z,42.54
2022-12-23T09:39:46.180Z,42.54
2022-12-23T09:40:47.677Z,42.54
2022-12-23T09:41:45.578Z,42.54
2022-12-23T09:42:45.850Z,42.54
2022-12-23T09:43:47.053Z,42.54
2022-12-23T09:44:48.339Z,42.54
2022-12-23T09:45:47.599Z,42.54
2022-12-23T09:46:46.873Z,42.54
2022-12-23T09:47:47.250Z,43.45
2022-12-23T09:48:48.545Z,42.54
2022-12-23T09:49:48.258Z,42.54
2022-12-23T09:50:48.149Z,42.54
2022-12-23T09:51:49.965Z,42.54
2022-12-23T09:52:48.959Z,42.54
2022-12-23T09:53:49.638Z,41.84
2022-12-23T09:54:49.957Z,42.54
2022-12-23T09:55:50.455Z,42.54
2022-12-23T09:56:50.667Z,42.54
2022-12-23T09:57:50.771Z,42.49
2022-12-23T09:58:50.974Z,42.54
2022-12-23T09:59:51.283Z,42.54
2022-12-23T10:00:51.514Z,42.54
2022-12-23T10:01:52.038Z,42.54
2022-12-23T10:02:51.957Z,40.93
2022-12-23T10:03:51.234Z,42.54
2022-12-23T10:04:51.946Z,42.54
2022-12-23T10:05:52.230Z,42.54
2022-12-23T10:06:56.346Z,42.54
2022-12-23T10:07:53.643Z,42.54
2022-12-23T10:08:51.950Z,42.54
2022-12-23T10:09:53.255Z,42.54
2022-12-23T10:10:53.590Z,42.00
2022-12-23T10:11:52.940Z,42.54
2022-12-23T10:12:53.242Z,42.54
2022-12-23T10:13:53.651Z,42.38
2022-12-23T10:14:55.960Z,41.73
2022-12-23T10:15:54.376Z,42.00
2022-12-23T10:16:54.779Z,42.22
2022-12-23T10:17:55.239Z,43.45
2022-12-23T10:18:56.450Z,41.79
2022-12-23T10:19:56.606Z,41.68
2022-12-23T10:20:55.908Z,42.43
2022-12-23T10:21:57.147Z,42.54
2022-12-23T10:22:57.368Z,42.11
2022-12-23T10:23:56.700Z,42.54
2022-12-23T10:24:58.980Z,42.54
2022-12-23T10:25:58.038Z,42.54
2022-12-23T10:26:59.394Z,42.54
2022-12-23T10:27:58.674Z,42.54
2022-12-23T10:28:58.076Z,42.54
2022-12-23T10:29:59.216Z,42.54
2022-12-23T10:32:00.384Z,41.46
2022-12-23T10:32:58.798Z,41.14
2022-12-23T10:34:00.312Z,40.98
2022-12-23T10:34:59.998Z,41.36
2022-12-23T10:36:00.265Z,42.54
2022-12-23T10:37:01.713Z,42.54
2022-12-23T10:38:00.100Z,42.54
2022-12-23T10:39:00.385Z,40.28
2022-12-23T10:40:01.725Z,42.54
2022-12-23T10:41:08.851Z,41.52
2022-12-23T10:42:01.145Z,41.09
2022-12-23T10:43:02.439Z,42.54
2022-12-23T10:44:03.741Z,42.54
2022-12-23T10:45:02.062Z,42.54
2022-12-23T10:46:03.260Z,42.54
2022-12-23T10:47:03.545Z,43.08
2022-12-23T10:48:05.080Z,42.54
2022-12-23T10:49:05.142Z,42.54
2022-12-23T10:50:04.212Z,42.54
2022-12-23T10:51:04.350Z,42.54
2022-12-23T10:52:03.641Z,42.54
2022-12-23T10:53:04.935Z,41.63
2022-12-23T10:54:04.311Z,42.54
2022-12-23T10:55:05.503Z,42.54
2022-12-23T10:56:05.693Z,42.54
2022-12-23T10:57:06.619Z,42.27
2022-12-23T10:58:05.389Z,42.54
2022-12-23T10:59:07.792Z,42.54
2022-12-23T11:00:06.801Z,42.54
2022-12-23T11:01:13.941Z,42.54
2022-12-23T11:02:07.113Z,42.54
2022-12-23T11:03:07.457Z,42.54
2022-12-23T11:04:06.871Z,42.54
2022-12-23T11:05:07.871Z,42.54
2022-12-23T11:06:07.285Z,42.92
2022-12-23T11:07:42.107Z,42.54
2022-12-23T11:08:09.091Z,42.54
2022-12-23T11:09:09.378Z,42.54
2022-12-23T11:10:10.697Z,42.54
2022-12-23T11:11:09.854Z,42.54
2022-12-23T11:12:10.081Z,42.54
2022-12-23T11:13:10.265Z,42.54
2022-12-23T11:14:10.372Z,42.54
2022-12-23T11:15:10.596Z,42.54
2022-12-23T11:16:10.727Z,42.54
2022-12-23T11:17:10.007Z,42.54
2022-12-23T11:18:11.219Z,42.54
2022-12-23T11:19:11.468Z,42.54
2022-12-23T11:20:11.537Z,43.34
2022-12-23T11:21:11.726Z,42.54
2022-12-23T11:22:12.566Z,42.54
2022-12-23T11:23:12.360Z,42.54
2022-12-23T11:24:12.440Z,42.54
2022-12-23T11:25:12.704Z,42.54
2022-12-23T11:26:12.779Z,42.54
2022-12-23T11:27:12.986Z,42.54
2022-12-23T11:28:13.171Z,41.63
2022-12-23T11:29:12.750Z,42.54
2022-12-23T11:30:12.613Z,41.41
2022-12-23T11:31:14.954Z,42.54
2022-12-23T11:32:14.214Z,42.70
2022-12-23T11:33:14.485Z,42.11
2022-12-23T11:34:14.783Z,42.54
2022-12-23T11:35:14.997Z,41.79
2022-12-23T11:36:16.385Z,42.54
2022-12-23T11:37:15.682Z,42.54
2022-12-23T11:38:15.240Z,41.95
2022-12-23T11:39:16.643Z,42.54
2022-12-23T11:40:16.917Z,42.54
2022-12-23T11:41:16.933Z,42.54
2022-12-23T11:42:17.121Z,42.54
2022-12-23T11:43:17.388Z,41.68
2022-12-23T11:44:17.503Z,42.54
2022-12-23T11:45:17.917Z,42.54
2022-12-23T11:46:17.364Z,41.68
2022-12-23T11:47:19.672Z,42.54
2022-12-23T11:48:18.933Z,40.98
2022-12-23T11:49:19.234Z,42.06
2022-12-23T11:50:18.543Z,42.54
2022-12-23T11:51:18.867Z,42.54
2022-12-23T11:52:19.979Z,41.04
2022-12-23T11:53:20.181Z,42.54
2022-12-23T11:54:19.465Z,42.54
2022-12-23T11:55:20.515Z,42.54
2022-12-23T11:56:19.840Z,42.54
2022-12-23T11:57:20.292Z,41.09
2022-12-23T11:58:21.563Z,42.54
2022-12-23T11:59:21.681Z,42.54
2022-12-23T12:00:21.530Z,41.68
2022-12-23T12:01:22.388Z,42.54
2022-12-23T12:02:22.236Z,42.11
2022-12-23T12:03:22.430Z,42.54
2022-12-23T12:04:22.237Z,42.54
2022-12-23T12:05:23.427Z,41.68
2022-12-23T12:06:24.212Z,42.54
2022-12-23T12:07:23.928Z,42.54
2022-12-23T12:08:24.130Z,42.54
2022-12-23T12:09:23.409Z,40.82
2022-12-23T12:10:23.940Z,42.54
2022-12-23T12:11:24.585Z,41.68
2022-12-23T12:12:23.878Z,42.54
2022-12-23T12:13:25.085Z,42.54
2022-12-23T12:14:24.438Z,42.11
2022-12-23T12:15:25.723Z,42.54
2022-12-23T12:16:26.077Z,42.54
2022-12-23T12:17:25.366Z,42.54
2022-12-23T12:18:26.696Z,42.54
2022-12-23T12:19:26.976Z,42.00
2022-12-23T12:20:26.265Z,41.84
2022-12-23T12:21:27.547Z,42.54
2022-12-23T12:22:27.863Z,42.54
2022-12-23T12:23:27.235Z,42.54
2022-12-23T12:24:27.672Z,42.54
2022-12-23T12:25:27.882Z,40.50
2022-12-23T12:26:29.014Z,42.54
2022-12-23T12:27:30.297Z,42.54
2022-12-23T12:28:29.564Z,42.54
2022-12-23T12:29:29.726Z,42.54
2022-12-23T12:30:29.924Z,42.54
2022-12-23T12:31:30.282Z,42.86
2022-12-23T12:32:29.655Z,42.54
2022-12-23T12:33:29.939Z,42.54
2022-12-23T12:34:30.394Z,42.54
2022-12-23T12:35:30.883Z,42.54
2022-12-23T12:36:31.915Z,42.54
2022-12-23T12:37:32.179Z,42.54
2022-12-23T12:38:32.226Z,42.54
2022-12-23T12:39:32.384Z,42.54
2022-12-23T12:40:31.757Z,41.68
2022-12-23T12:41:32.038Z,41.46
2022-12-23T12:42:32.306Z,41.73
2022-12-23T12:43:32.564Z,42.54
2022-12-23T12:44:35.695Z,42.54
2022-12-23T12:45:33.941Z,42.54
2022-12-23T12:46:34.333Z,42.49
2022-12-23T12:47:53.467Z,42.54
2022-12-23T12:48:34.658Z,41.68
2022-12-23T12:49:34.131Z,42.54
2022-12-23T12:50:34.800Z,41.25
2022-12-23T12:51:34.109Z,42.54
2022-12-23T12:52:35.943Z,42.54
2022-12-23T12:53:35.706Z,42.54
2022-12-23T12:54:37.377Z,42.54
2022-12-23T12:55:36.955Z,42.54
2022-12-23T12:56:36.873Z,42.54
2022-12-23T12:57:35.723Z,42.54
2022-12-23T12:58:37.012Z,42.54
2022-12-23T12:59:38.356Z,42.54
2022-12-23T13:00:37.522Z,42.54
2022-12-23T13:01:38.024Z,43.45
2022-12-23T13:02:37.630Z,43.45
2022-12-23T13:03:37.910Z,42.54
2022-12-23T13:04:37.275Z,42.54
2022-12-23T13:05:39.553Z,42.54
2022-12-23T13:06:37.837Z,42.54
2022-12-23T13:07:39.100Z,42.54
2022-12-23T13:08:39.309Z,42.54